Terminal Aerodrome Forecast
Issued by NWS

Home | Current Version | Previous Version | Graphics & Text | Print | Product List | Glossary On
Versions: 1 2 3 4 5 6 7 8 9 10 11 12 13 14 15 16 17 18
932
FTUS43 KABR 222328 AAB
TAFATY
TAF AMD
KATY 222328Z 2223/2324 24011KT P6SM SKC
     FM230400 20007KT P6SM SKC
     FM231100 15007KT P6SM SKC
     FM231600 19014KT P6SM SCT150=

USA.gov is the U.S. government's official web portal to all federal, state and local government web resources and services.